createdAt,value
2023-05-22T00:00:03.025Z,0.51
2023-05-22T00:01:03.077Z,0.52
2023-05-22T00:02:03.093Z,0.51
2023-05-22T00:03:03.190Z,0.52
2023-05-22T00:04:03.202Z,0.51
2023-05-22T00:05:03.236Z,0.51
2023-05-22T00:06:03.201Z,0.51
2023-05-22T00:07:03.286Z,0.53
2023-05-22T00:08:03.294Z,0.52
2023-05-22T00:09:03.292Z,0.51
2023-05-22T00:10:03.331Z,0.51
2023-05-22T00:11:03.362Z,0.52
2023-05-22T00:12:03.416Z,0.52
2023-05-22T00:13:03.450Z,0.51
2023-05-22T00:14:03.581Z,0.51
2023-05-22T00:15:03.549Z,0.51
2023-05-22T00:16:03.611Z,0.52
2023-05-22T00:17:03.678Z,0.51
2023-05-22T00:18:03.703Z,0.52
2023-05-22T00:19:03.642Z,0.52
2023-05-22T00:20:03.716Z,0.52
2023-05-22T00:21:03.725Z,0.51
2023-05-22T00:22:03.764Z,0.52
2023-05-22T00:23:03.781Z,0.52
2023-05-22T00:24:03.843Z,0.51
2023-05-22T00:25:03.871Z,0.51
2023-05-22T00:26:03.905Z,0.52
2023-05-22T00:27:03.954Z,0.52
2023-05-22T00:28:03.979Z,0.51
2023-05-22T00:29:03.974Z,0.52
2023-05-22T00:30:04.016Z,0.52
2023-05-22T00:31:04.072Z,0.52
2023-05-22T00:32:04.130Z,0.53
2023-05-22T00:33:04.247Z,0.50
2023-05-22T00:34:04.243Z,0.52
2023-05-22T00:35:04.230Z,0.53
2023-05-22T00:36:04.292Z,0.52
2023-05-22T00:37:04.323Z,0.51
2023-05-22T00:38:04.362Z,0.52
2023-05-22T00:39:04.409Z,0.52
2023-05-22T00:40:04.468Z,0.51
2023-05-22T00:41:04.485Z,0.52
2023-05-22T00:42:04.837Z,0.52
2023-05-22T00:43:04.518Z,0.52
2023-05-22T00:44:04.555Z,0.52
2023-05-22T00:45:04.562Z,0.53
2023-05-22T00:46:04.625Z,0.51
2023-05-22T00:47:04.832Z,0.51
2023-05-22T00:48:04.749Z,0.51
2023-05-22T00:49:04.729Z,0.52
2023-05-22T00:50:04.751Z,0.52
2023-05-22T00:51:04.792Z,0.52
2023-05-22T00:52:05.312Z,0.52
2023-05-22T00:53:04.864Z,0.52
2023-05-22T00:54:04.912Z,0.51
2023-05-22T00:55:04.963Z,0.52
2023-05-22T00:56:04.978Z,0.53
2023-05-22T00:57:05.339Z,0.52
2023-05-22T00:58:05.065Z,0.52
2023-05-22T00:59:05.112Z,0.52
2023-05-22T01:00:05.157Z,0.52
2023-05-22T01:01:05.160Z,0.51
2023-05-22T01:02:05.233Z,0.51
2023-05-22T01:03:05.291Z,0.51
2023-05-22T01:04:05.389Z,0.53
2023-05-22T01:05:05.353Z,0.52
2023-05-22T01:06:05.339Z,0.52
2023-05-22T01:07:05.384Z,0.53
2023-05-22T01:08:05.407Z,0.52
2023-05-22T01:09:05.464Z,0.51
2023-05-22T01:10:05.484Z,0.51
2023-05-22T01:11:05.547Z,0.52
2023-05-22T01:12:05.561Z,0.51
2023-05-22T01:13:05.590Z,0.50
2023-05-22T01:14:05.636Z,0.51
2023-05-22T01:15:05.696Z,0.52
2023-05-22T01:16:05.741Z,0.51
2023-05-22T01:17:05.757Z,0.53
2023-05-22T01:18:05.825Z,0.52
2023-05-22T01:19:05.856Z,0.51
2023-05-22T01:20:05.876Z,0.52
2023-05-22T01:21:05.889Z,0.52
2023-05-22T01:22:05.946Z,0.52
2023-05-22T01:23:05.981Z,0.52
2023-05-22T01:24:05.997Z,0.51
2023-05-22T01:25:06.039Z,0.52
2023-05-22T01:26:06.120Z,0.52
2023-05-22T01:27:06.158Z,0.52
2023-05-22T01:28:06.158Z,0.52
2023-05-22T01:29:06.217Z,0.51
2023-05-22T01:30:06.234Z,0.51
2023-05-22T01:31:06.287Z,0.52
2023-05-22T01:32:06.432Z,0.51
2023-05-22T01:33:06.460Z,0.52
2023-05-22T01:34:06.521Z,0.51
2023-05-22T01:35:06.474Z,0.52
2023-05-22T01:36:06.494Z,0.52
2023-05-22T01:37:06.554Z,0.52
2023-05-22T01:38:06.583Z,0.51
2023-05-22T01:39:06.622Z,0.52
2023-05-22T01:40:06.682Z,0.51
2023-05-22T01:41:06.655Z,0.52
2023-05-22T01:42:06.741Z,0.51
2023-05-22T01:43:06.801Z,0.51
2023-05-22T01:44:06.830Z,0.52
2023-05-22T01:45:06.870Z,0.52
2023-05-22T01:46:06.907Z,0.51
2023-05-22T01:47:06.905Z,0.52
2023-05-22T01:48:06.983Z,0.51
2023-05-22T01:49:07.028Z,0.52
2023-05-22T01:50:07.090Z,0.51
2023-05-22T01:51:07.124Z,0.52
2023-05-22T01:52:07.114Z,0.51
2023-05-22T01:53:07.195Z,0.52
2023-05-22T01:54:07.219Z,0.52
2023-05-22T01:55:07.232Z,0.50
2023-05-22T01:56:07.323Z,0.51
2023-05-22T01:57:07.341Z,0.52
2023-05-22T01:58:07.351Z,0.51
2023-05-22T01:59:07.386Z,0.50
2023-05-22T02:00:07.467Z,0.51
2023-05-22T02:01:07.572Z,0.51
2023-05-22T02:02:07.584Z,0.51
2023-05-22T02:03:07.742Z,0.52
2023-05-22T02:04:07.579Z,0.52
2023-05-22T02:05:07.659Z,0.52
2023-05-22T02:06:07.706Z,0.52
2023-05-22T02:07:07.722Z,0.53
2023-05-22T02:08:07.745Z,0.51
2023-05-22T02:09:07.782Z,0.52
2023-05-22T02:10:07.781Z,0.52
2023-05-22T02:11:07.871Z,0.51
2023-05-22T02:12:07.905Z,0.52
2023-05-22T02:13:07.908Z,0.52
2023-05-22T02:14:07.920Z,0.53
2023-05-22T02:15:07.975Z,0.52
2023-05-22T02:16:08.061Z,0.52
2023-05-22T02:17:08.040Z,0.52
2023-05-22T02:18:08.129Z,0.51
2023-05-22T02:19:08.201Z,0.51
2023-05-22T02:20:08.205Z,0.52
2023-05-22T02:21:08.215Z,0.53
2023-05-22T02:22:08.266Z,0.52
2023-05-22T02:23:08.327Z,0.53
2023-05-22T02:24:08.329Z,0.52
2023-05-22T02:25:08.365Z,0.53
2023-05-22T02:26:08.412Z,0.53
2023-05-22T02:27:08.453Z,0.53
2023-05-22T02:28:08.512Z,0.53
2023-05-22T02:29:08.551Z,0.53
2023-05-22T02:30:08.532Z,0.53
2023-05-22T02:31:08.630Z,0.52
2023-05-22T02:32:08.634Z,0.53
2023-05-22T02:33:08.749Z,0.52
2023-05-22T02:34:08.711Z,0.53
2023-05-22T02:35:08.765Z,0.53
2023-05-22T02:36:08.783Z,0.53
2023-05-22T02:37:08.837Z,0.52
2023-05-22T02:38:08.889Z,0.53
2023-05-22T02:39:08.921Z,0.52
2023-05-22T02:40:08.907Z,0.52
2023-05-22T02:41:09.001Z,0.52
2023-05-22T02:42:09.001Z,0.52
2023-05-22T02:43:09.076Z,0.52
2023-05-22T02:44:09.117Z,0.52
2023-05-22T02:45:09.144Z,0.52
2023-05-22T02:46:09.229Z,0.52
2023-05-22T02:47:09.257Z,0.52
2023-05-22T02:48:09.325Z,0.53
2023-05-22T02:49:09.354Z,0.53
2023-05-22T02:50:09.367Z,0.52
2023-05-22T02:51:09.365Z,0.52
2023-05-22T02:52:09.438Z,0.52
2023-05-22T02:53:09.490Z,0.51
2023-05-22T02:54:09.517Z,0.53
2023-05-22T02:55:09.581Z,0.53
2023-05-22T02:56:09.608Z,0.51
2023-05-22T02:57:09.643Z,0.52
2023-05-22T02:58:09.678Z,0.53
2023-05-22T02:59:09.688Z,0.52
2023-05-22T03:00:09.807Z,0.52
2023-05-22T03:01:09.814Z,0.53
2023-05-22T03:02:10.062Z,0.53
2023-05-22T03:03:09.973Z,0.52
2023-05-22T03:04:10.068Z,0.53
2023-05-22T03:05:09.929Z,0.52
2023-05-22T03:06:09.972Z,0.52
2023-05-22T03:07:10.055Z,0.52
2023-05-22T03:08:10.133Z,0.53
2023-05-22T03:09:10.103Z,0.52
2023-05-22T03:10:10.155Z,0.52
2023-05-22T03:11:10.267Z,0.52
2023-05-22T03:12:10.234Z,0.52
2023-05-22T03:13:10.259Z,0.52
2023-05-22T03:14:10.295Z,0.52
2023-05-22T03:15:10.326Z,0.52
2023-05-22T03:16:10.396Z,0.52
2023-05-22T03:17:10.433Z,0.51
2023-05-22T03:18:10.511Z,0.52
2023-05-22T03:19:10.556Z,0.53
2023-05-22T03:20:10.557Z,0.53
2023-05-22T03:21:10.581Z,0.52
2023-05-22T03:22:10.623Z,0.52
2023-05-22T03:23:10.678Z,0.53
2023-05-22T03:24:10.739Z,0.53
2023-05-22T03:25:10.779Z,0.52
2023-05-22T03:26:10.763Z,0.52
2023-05-22T03:27:10.859Z,0.52
2023-05-22T03:28:10.859Z,0.53
2023-05-22T03:29:11.030Z,0.51
2023-05-22T03:30:10.986Z,0.52
2023-05-22T03:31:11.015Z,0.52
2023-05-22T03:32:11.056Z,0.51
2023-05-22T03:33:11.148Z,0.52
2023-05-22T03:34:11.228Z,0.53
2023-05-22T03:35:11.167Z,0.52
2023-05-22T03:36:11.210Z,0.52
2023-05-22T03:37:11.433Z,0.52
2023-05-22T03:38:11.303Z,0.52
2023-05-22T03:39:11.313Z,0.52
2023-05-22T03:40:11.348Z,0.51
2023-05-22T03:41:11.397Z,0.51
2023-05-22T03:42:11.446Z,0.53
2023-05-22T03:43:11.478Z,0.52
2023-05-22T03:44:11.523Z,0.52
2023-05-22T03:45:11.559Z,0.51
2023-05-22T03:46:11.670Z,0.53
2023-05-22T03:47:11.688Z,0.53
2023-05-22T03:48:11.714Z,0.52
2023-05-22T03:49:11.780Z,0.52
2023-05-22T03:50:11.805Z,0.52
2023-05-22T03:51:11.789Z,0.51
2023-05-22T03:52:11.846Z,0.52
2023-05-22T03:53:11.881Z,0.52
2023-05-22T03:54:11.920Z,0.53
2023-05-22T03:55:12.029Z,0.53
2023-05-22T03:56:12.058Z,0.51
2023-05-22T03:57:12.107Z,0.51
2023-05-22T03:58:12.142Z,0.51
2023-05-22T03:59:12.162Z,0.52
2023-05-22T04:00:12.191Z,0.52
2023-05-22T04:01:12.247Z,0.52
2023-05-22T04:02:12.312Z,0.52
2023-05-22T04:03:12.495Z,0.52
2023-05-22T04:04:12.370Z,0.52
2023-05-22T04:05:12.510Z,0.52
2023-05-22T04:06:12.488Z,0.52
2023-05-22T04:07:12.496Z,0.50
2023-05-22T04:08:12.550Z,0.52
2023-05-22T04:09:12.565Z,0.52
2023-05-22T04:10:12.599Z,0.53
2023-05-22T04:11:12.658Z,0.52
2023-05-22T04:12:12.691Z,0.52
2023-05-22T04:13:12.765Z,0.53
2023-05-22T04:14:12.774Z,0.52
2023-05-22T04:15:12.865Z,0.52
2023-05-22T04:16:13.020Z,0.52
2023-05-22T04:17:12.939Z,0.52
2023-05-22T04:18:12.979Z,0.51
2023-05-22T04:19:13.076Z,0.53
2023-05-22T04:20:13.116Z,0.52
2023-05-22T04:21:13.073Z,0.52
2023-05-22T04:22:13.170Z,0.52
2023-05-22T04:23:13.149Z,0.52
2023-05-22T04:24:13.185Z,0.52
2023-05-22T04:25:13.268Z,0.51
2023-05-22T04:26:13.303Z,0.52
2023-05-22T04:27:13.313Z,0.53
2023-05-22T04:28:13.352Z,0.52
2023-05-22T04:29:13.430Z,0.52
2023-05-22T04:30:13.422Z,0.52
2023-05-22T04:31:13.523Z,0.53
2023-05-22T04:32:13.512Z,0.52
2023-05-22T04:33:13.711Z,0.51
2023-05-22T04:34:13.597Z,0.52
2023-05-22T04:35:13.600Z,0.51
2023-05-22T04:36:13.680Z,0.52
2023-05-22T04:37:13.685Z,0.52
2023-05-22T04:38:13.765Z,0.52
2023-05-22T04:39:13.797Z,0.51
2023-05-22T04:40:13.802Z,0.52
2023-05-22T04:41:13.851Z,0.52
2023-05-22T04:42:13.928Z,0.51
2023-05-22T04:43:13.935Z,0.52
2023-05-22T04:44:13.949Z,0.53
2023-05-22T04:45:13.995Z,0.52
2023-05-22T04:46:14.065Z,0.52
2023-05-22T04:47:14.052Z,0.52
2023-05-22T04:48:14.112Z,0.52
2023-05-22T04:49:14.205Z,0.52
2023-05-22T04:50:14.194Z,0.52
2023-05-22T04:51:14.242Z,0.52
2023-05-22T04:52:14.298Z,0.52
2023-05-22T04:53:14.328Z,0.52
2023-05-22T04:54:14.368Z,0.51
2023-05-22T04:55:14.423Z,0.52
2023-05-22T04:56:18.636Z,0.52
2023-05-22T04:57:15.485Z,0.52
2023-05-22T04:58:14.430Z,0.52
2023-05-22T04:59:14.387Z,0.52
2023-05-22T05:00:14.471Z,0.52
2023-05-22T05:01:14.457Z,0.52
2023-05-22T05:02:14.362Z,0.52
2023-05-22T05:03:14.496Z,0.53
2023-05-22T05:04:14.321Z,0.52
2023-05-22T05:05:14.356Z,0.52
2023-05-22T05:06:14.390Z,0.51
2023-05-22T05:07:14.321Z,0.52
2023-05-22T05:08:14.335Z,0.51
2023-05-22T05:09:14.360Z,0.52
2023-05-22T05:10:14.390Z,0.52
2023-05-22T05:11:14.407Z,0.52
2023-05-22T05:12:14.513Z,0.53
2023-05-22T05:13:14.611Z,0.52
2023-05-22T05:14:14.579Z,0.52
2023-05-22T05:15:14.577Z,0.52
2023-05-22T05:16:14.667Z,0.51
2023-05-22T05:17:14.915Z,0.51
2023-05-22T05:18:14.799Z,0.51
2023-05-22T05:19:14.853Z,0.52
2023-05-22T05:20:14.833Z,0.52
2023-05-22T05:21:14.836Z,0.51
2023-05-22T05:22:14.916Z,0.52
2023-05-22T05:23:14.940Z,0.51
2023-05-22T05:24:14.937Z,0.51
2023-05-22T05:25:14.984Z,0.51
2023-05-22T05:26:15.017Z,0.52
2023-05-22T05:27:15.014Z,0.51
2023-05-22T05:28:15.096Z,0.52
2023-05-22T05:29:15.131Z,0.53
2023-05-22T05:30:15.150Z,0.51
2023-05-22T05:31:15.228Z,0.51
2023-05-22T05:32:15.278Z,0.52
2023-05-22T05:33:15.318Z,0.51
2023-05-22T05:34:15.328Z,0.52
2023-05-22T05:35:15.324Z,0.52
2023-05-22T05:36:15.384Z,0.52
2023-05-22T05:37:15.378Z,0.52
2023-05-22T05:38:15.405Z,0.51
2023-05-22T05:39:15.449Z,0.52
2023-05-22T05:40:15.497Z,0.52
2023-05-22T05:41:15.539Z,0.51
2023-05-22T05:42:15.589Z,0.53
2023-05-22T05:43:15.600Z,0.52
2023-05-22T05:44:15.626Z,0.51
2023-05-22T05:45:15.687Z,0.51
2023-05-22T05:46:15.740Z,0.51
2023-05-22T05:47:15.737Z,0.52
2023-05-22T05:48:15.750Z,0.52
2023-05-22T05:49:15.796Z,0.52
2023-05-22T05:50:15.852Z,0.52
2023-05-22T05:51:15.887Z,0.52
2023-05-22T05:52:15.916Z,0.52
2023-05-22T05:53:15.956Z,0.53
2023-05-22T05:54:15.973Z,0.53
2023-05-22T05:55:16.038Z,0.52
2023-05-22T05:56:16.064Z,0.52
2023-05-22T05:57:16.087Z,0.52
2023-05-22T05:58:16.110Z,0.52
2023-05-22T05:59:16.182Z,0.53
2023-05-22T06:00:16.176Z,0.53
2023-05-22T06:01:16.234Z,0.52
2023-05-22T06:02:16.236Z,0.52
2023-05-22T06:03:16.388Z,0.53
2023-05-22T06:04:16.349Z,0.52
2023-05-22T06:05:16.356Z,0.53
2023-05-22T06:06:16.354Z,0.52
2023-05-22T06:07:16.412Z,0.52
2023-05-22T06:08:16.480Z,0.52
2023-05-22T06:09:16.485Z,0.53
2023-05-22T06:10:16.553Z,0.52
2023-05-22T06:11:16.539Z,0.52
2023-05-22T06:12:16.615Z,0.53
2023-05-22T06:13:16.589Z,0.52
2023-05-22T06:14:16.693Z,0.52
2023-05-22T06:15:16.773Z,0.52
2023-05-22T06:16:16.776Z,0.53
2023-05-22T06:17:16.743Z,0.52
2023-05-22T06:18:16.748Z,0.53
2023-05-22T06:19:16.823Z,0.52
2023-05-22T06:20:16.825Z,0.53
2023-05-22T06:21:16.873Z,0.53
2023-05-22T06:22:16.898Z,0.53
2023-05-22T06:23:16.913Z,0.55
2023-05-22T06:24:17.003Z,0.55
2023-05-22T06:25:16.982Z,0.54
2023-05-22T06:26:17.027Z,0.56
2023-05-22T06:27:17.121Z,0.56
2023-05-22T06:28:17.134Z,0.58
2023-05-22T06:29:17.147Z,0.57
2023-05-22T06:30:28.162Z,0.57
2023-05-22T06:31:18.246Z,0.57
2023-05-22T06:32:17.195Z,0.57
2023-05-22T06:33:17.254Z,0.58
2023-05-22T06:34:17.248Z,0.59
2023-05-22T06:35:17.146Z,0.60
2023-05-22T06:36:17.136Z,0.61
2023-05-22T06:37:17.107Z,0.60
2023-05-22T06:38:17.144Z,0.60
2023-05-22T06:39:17.125Z,0.61
2023-05-22T06:40:17.100Z,0.62
2023-05-22T06:41:17.078Z,0.62
2023-05-22T06:42:17.120Z,0.63
2023-05-22T06:43:17.046Z,0.62
2023-05-22T06:44:17.054Z,0.64
2023-05-22T06:45:17.100Z,0.62
2023-05-22T06:46:17.187Z,0.62
2023-05-22T06:47:17.189Z,0.62
2023-05-22T06:48:17.266Z,0.63
2023-05-22T06:49:17.271Z,0.62
2023-05-22T06:50:17.273Z,0.63
2023-05-22T06:51:17.362Z,0.63
2023-05-22T06:52:17.414Z,0.63
2023-05-22T06:53:17.430Z,0.62
2023-05-22T06:54:17.459Z,0.60
2023-05-22T06:55:17.528Z,0.62
2023-05-22T06:56:17.533Z,0.60
2023-05-22T06:57:17.555Z,0.60
2023-05-22T06:58:17.589Z,0.64
2023-05-22T06:59:18.435Z,0.64
2023-05-22T07:00:19.056Z,0.67
2023-05-22T07:01:17.720Z,0.68
2023-05-22T07:02:17.608Z,0.72
2023-05-22T07:03:17.677Z,0.69
2023-05-22T07:04:17.600Z,0.74
2023-05-22T07:05:17.860Z,0.81
2023-05-22T07:06:17.646Z,0.82
2023-05-22T07:07:17.587Z,0.86
2023-05-22T07:08:18.009Z,0.89
2023-05-22T07:09:17.583Z,0.90
2023-05-22T07:10:17.558Z,0.91
2023-05-22T07:11:17.538Z,0.95
2023-05-22T07:12:17.539Z,0.99
2023-05-22T07:13:17.569Z,0.98
2023-05-22T07:14:17.546Z,1.03
2023-05-22T07:15:17.546Z,1.03
2023-05-22T07:16:17.595Z,1.10
2023-05-22T07:17:17.551Z,1.09
2023-05-22T07:18:17.589Z,1.15
2023-05-22T07:19:17.549Z,1.13
2023-05-22T07:20:17.549Z,1.18
2023-05-22T07:21:17.575Z,1.25
2023-05-22T07:22:17.494Z,1.21
2023-05-22T07:23:17.500Z,1.27
2023-05-22T07:24:17.459Z,1.26
2023-05-22T07:25:17.462Z,1.28
2023-05-22T07:26:17.470Z,1.31
2023-05-22T07:27:17.482Z,1.31
2023-05-22T07:28:17.470Z,1.35
2023-05-22T07:29:17.495Z,1.40
2023-05-22T07:30:17.457Z,1.41
2023-05-22T07:31:17.470Z,1.41
2023-05-22T07:32:17.399Z,1.45
2023-05-22T07:33:17.473Z,1.44
2023-05-22T07:34:17.421Z,1.46
2023-05-22T07:35:17.418Z,1.51
2023-05-22T07:36:17.427Z,1.51
2023-05-22T07:37:17.383Z,1.53
2023-05-22T07:38:17.399Z,1.52
2023-05-22T07:39:17.345Z,1.55
2023-05-22T07:40:17.366Z,1.55
2023-05-22T07:41:17.420Z,1.55
2023-05-22T07:42:17.357Z,1.54
2023-05-22T07:43:17.360Z,1.57
2023-05-22T07:44:17.340Z,1.59
2023-05-22T07:45:17.331Z,1.62
2023-05-22T07:46:17.400Z,1.61
2023-05-22T07:47:17.363Z,1.69
2023-05-22T07:48:17.570Z,1.73
2023-05-22T07:49:17.369Z,1.57
2023-05-22T07:50:17.311Z,1.64
2023-05-22T07:51:17.270Z,1.60
2023-05-22T07:52:17.259Z,1.53
2023-05-22T07:53:17.308Z,1.48
2023-05-22T07:54:17.282Z,1.49
2023-05-22T07:55:17.248Z,1.46
2023-05-22T07:56:17.244Z,1.46
2023-05-22T07:57:17.251Z,1.47
2023-05-22T07:58:17.263Z,1.43
2023-05-22T07:59:17.236Z,1.40
2023-05-22T08:00:17.287Z,1.39
2023-05-22T08:01:17.237Z,1.34
2023-05-22T08:02:17.367Z,1.28
2023-05-22T08:03:17.932Z,1.27
2023-05-22T08:04:17.518Z,1.24
2023-05-22T08:05:17.415Z,1.22
2023-05-22T08:06:17.498Z,1.22
2023-05-22T08:07:17.427Z,1.15
2023-05-22T08:08:17.498Z,1.10
2023-05-22T08:09:17.633Z,1.10
2023-05-22T08:10:17.554Z,1.09
2023-05-22T08:11:17.539Z,1.11
2023-05-22T08:12:17.637Z,1.08
2023-05-22T08:13:17.617Z,1.07
2023-05-22T08:14:17.633Z,1.04
2023-05-22T08:15:17.698Z,1.03
2023-05-22T08:16:17.684Z,1.03
2023-05-22T08:17:17.806Z,1.01
2023-05-22T08:18:17.756Z,0.95
2023-05-22T08:19:17.866Z,0.96
2023-05-22T08:20:17.879Z,0.95
2023-05-22T08:21:17.817Z,0.93
2023-05-22T08:22:17.853Z,0.94
2023-05-22T08:23:17.909Z,0.93
2023-05-22T08:24:17.905Z,0.92
2023-05-22T08:25:17.972Z,0.91
2023-05-22T08:26:17.935Z,0.92
2023-05-22T08:27:17.968Z,0.92
2023-05-22T08:28:17.976Z,0.89
2023-05-22T08:29:18.046Z,0.86
2023-05-22T08:30:17.982Z,0.87
2023-05-22T08:31:18.090Z,0.87
2023-05-22T08:32:25.052Z,0.83
2023-05-22T08:33:18.106Z,0.83
2023-05-22T08:34:18.057Z,0.83
2023-05-22T08:35:18.042Z,0.82
2023-05-22T08:36:18.045Z,0.82
2023-05-22T08:37:18.011Z,0.82
2023-05-22T08:38:17.977Z,0.81
2023-05-22T08:39:18.011Z,0.80
2023-05-22T08:40:17.980Z,0.79
2023-05-22T08:41:17.981Z,0.74
2023-05-22T08:42:17.992Z,0.71
2023-05-22T08:43:17.983Z,0.66
2023-05-22T08:44:17.961Z,0.62
2023-05-22T08:45:17.969Z,0.64
2023-05-22T08:46:17.990Z,0.65
2023-05-22T08:47:17.995Z,0.64
2023-05-22T08:48:17.900Z,0.68
2023-05-22T08:49:17.923Z,0.68
2023-05-22T08:50:17.894Z,0.69
2023-05-22T08:51:17.938Z,0.70
2023-05-22T08:52:17.855Z,0.72
2023-05-22T08:53:17.946Z,0.73
2023-05-22T08:54:17.968Z,0.74
2023-05-22T08:55:17.876Z,0.73
2023-05-22T08:56:17.858Z,0.75
2023-05-22T08:57:17.887Z,0.77
2023-05-22T08:58:17.857Z,0.79
2023-05-22T08:59:17.835Z,0.74
2023-05-22T09:00:17.821Z,0.76
2023-05-22T09:01:17.830Z,0.80
2023-05-22T09:02:17.827Z,0.81
2023-05-22T09:03:17.858Z,0.83
2023-05-22T09:04:18.505Z,0.83
2023-05-22T09:05:17.796Z,0.86
2023-05-22T09:06:17.798Z,0.87
2023-05-22T09:07:17.769Z,0.87
2023-05-22T09:08:20.804Z,0.93
2023-05-22T09:09:17.766Z,1.00
2023-05-22T09:10:17.775Z,0.99
2023-05-22T09:11:17.750Z,0.98
2023-05-22T09:12:17.749Z,0.99
2023-05-22T09:13:17.767Z,1.03
2023-05-22T09:14:17.741Z,1.10
2023-05-22T09:15:17.745Z,1.11
2023-05-22T09:16:17.724Z,1.14
2023-05-22T09:17:17.726Z,1.13
2023-05-22T09:18:17.713Z,1.15
2023-05-22T09:19:17.769Z,1.14
2023-05-22T09:20:17.708Z,1.14
2023-05-22T09:21:29.017Z,1.15
2023-05-22T09:22:18.694Z,1.15
2023-05-22T09:23:17.711Z,1.11
2023-05-22T09:24:17.665Z,1.15
2023-05-22T09:25:17.656Z,1.14
2023-05-22T09:26:17.640Z,1.18
2023-05-22T09:27:17.651Z,1.21
2023-05-22T09:28:17.637Z,1.19
2023-05-22T09:29:17.680Z,1.21
2023-05-22T09:30:17.642Z,1.23
2023-05-22T09:31:17.639Z,1.29
2023-05-22T09:32:17.611Z,1.31
2023-05-22T09:33:17.626Z,1.33
2023-05-22T09:34:17.684Z,1.34
2023-05-22T09:35:17.574Z,1.27
2023-05-22T09:36:17.567Z,1.23
2023-05-22T09:37:17.617Z,1.20
2023-05-22T09:38:17.559Z,1.19
2023-05-22T09:39:17.554Z,1.17
2023-05-22T09:40:17.567Z,1.13
2023-05-22T09:41:17.534Z,1.11
2023-05-22T09:42:17.551Z,1.12
2023-05-22T09:43:17.560Z,1.16
2023-05-22T09:44:17.573Z,1.15
2023-05-22T09:45:17.613Z,1.12
2023-05-22T09:46:18.312Z,0.99
2023-05-22T09:47:17.747Z,0.82
2023-05-22T09:48:18.056Z,0.85
2023-05-22T09:49:17.920Z,0.91
2023-05-22T09:50:17.906Z,0.80
2023-05-22T09:51:17.927Z,0.82
2023-05-22T09:52:17.952Z,0.66
2023-05-22T09:53:17.965Z,0.47
2023-05-22T09:54:18.093Z,0.62
2023-05-22T09:55:17.971Z,0.81
2023-05-22T09:56:24.257Z,0.87
2023-05-22T09:57:19.021Z,0.88
2023-05-22T09:58:18.003Z,0.89
2023-05-22T09:59:17.970Z,0.60
2023-05-22T10:00:17.985Z,0.73
2023-05-22T10:01:18.114Z,0.88
2023-05-22T10:02:17.949Z,0.87
2023-05-22T10:03:17.974Z,0.90
2023-05-22T10:04:17.960Z,0.92
2023-05-22T10:05:17.962Z,0.68
2023-05-22T10:06:17.919Z,0.75
2023-05-22T10:07:17.932Z,0.62
2023-05-22T10:08:17.910Z,0.83
2023-05-22T10:09:19.548Z,0.93
2023-05-22T10:10:17.906Z,0.92
2023-05-22T10:11:17.883Z,0.78
2023-05-22T10:12:17.913Z,0.88
2023-05-22T10:13:17.904Z,0.90
2023-05-22T10:14:17.885Z,0.77
2023-05-22T10:15:17.887Z,0.73
2023-05-22T10:16:17.919Z,0.79
2023-05-22T10:17:17.965Z,0.93
2023-05-22T10:18:17.930Z,0.88
2023-05-22T10:19:18.074Z,0.93
2023-05-22T10:20:18.079Z,0.86
2023-05-22T10:21:18.086Z,0.87
2023-05-22T10:22:18.176Z,0.77
2023-05-22T10:23:18.218Z,0.64
2023-05-22T10:24:18.263Z,0.71
2023-05-22T10:25:18.349Z,0.75
2023-05-22T10:26:18.375Z,0.77
2023-05-22T10:27:18.426Z,0.68
2023-05-22T10:28:18.471Z,0.81
2023-05-22T10:29:18.505Z,0.68
2023-05-22T10:30:18.532Z,0.58
2023-05-22T10:31:18.573Z,0.50
2023-05-22T10:32:18.624Z,0.56
2023-05-22T10:33:18.845Z,0.71
2023-05-22T10:34:18.732Z,0.72
2023-05-22T10:35:18.745Z,0.72
2023-05-22T10:36:18.900Z,0.76
2023-05-22T10:37:20.233Z,0.81
2023-05-22T10:38:18.883Z,0.85
2023-05-22T10:39:18.932Z,0.91
2023-05-22T10:40:18.940Z,0.90
2023-05-22T10:41:19.006Z,1.08
2023-05-22T10:42:19.036Z,1.06
2023-05-22T10:43:19.131Z,1.10
2023-05-22T10:44:19.148Z,1.13
2023-05-22T10:45:19.190Z,1.12
2023-05-22T10:46:19.276Z,1.14
2023-05-22T10:47:19.282Z,1.19
2023-05-22T10:48:19.295Z,1.12
2023-05-22T10:49:19.492Z,1.18
2023-05-22T10:50:19.590Z,1.11
2023-05-22T10:51:19.505Z,1.08
2023-05-22T10:52:19.584Z,1.15
2023-05-22T10:53:19.623Z,1.08
2023-05-22T10:54:19.644Z,1.11
2023-05-22T10:55:19.645Z,1.07
2023-05-22T10:56:19.682Z,1.10
2023-05-22T10:57:19.668Z,1.09
2023-05-22T10:58:19.626Z,1.13
2023-05-22T10:59:19.633Z,1.05
2023-05-22T11:00:19.653Z,1.06
2023-05-22T11:01:19.658Z,1.08
2023-05-22T11:02:19.698Z,1.06
2023-05-22T11:03:19.752Z,1.10
2023-05-22T11:04:19.679Z,1.07
2023-05-22T11:05:19.750Z,1.08
2023-05-22T11:06:19.642Z,1.02
2023-05-22T11:07:19.691Z,1.06
2023-05-22T11:08:19.712Z,1.04
2023-05-22T11:09:19.715Z,1.04
2023-05-22T11:10:19.750Z,1.05
2023-05-22T11:11:19.766Z,1.03
2023-05-22T11:12:19.781Z,1.03
2023-05-22T11:13:19.812Z,1.01
2023-05-22T11:14:19.808Z,1.01
2023-05-22T11:15:19.843Z,1.01
2023-05-22T11:16:19.907Z,1.01
2023-05-22T11:17:19.903Z,1.00
2023-05-22T11:18:19.961Z,1.00
2023-05-22T11:19:23.854Z,0.97
2023-05-22T11:20:19.967Z,0.97
2023-05-22T11:21:20.059Z,0.97
2023-05-22T11:22:19.995Z,0.97
2023-05-22T11:23:19.924Z,0.96
2023-05-22T11:24:19.961Z,0.96
2023-05-22T11:25:19.934Z,0.95
2023-05-22T11:26:19.927Z,0.94
2023-05-22T11:27:19.905Z,0.94
2023-05-22T11:28:19.947Z,0.94
2023-05-22T11:29:19.891Z,0.92
2023-05-22T11:30:19.876Z,0.91
2023-05-22T11:31:19.926Z,0.91
2023-05-22T11:32:19.864Z,0.91
2023-05-22T11:33:19.897Z,0.90
2023-05-22T11:34:19.896Z,0.90
2023-05-22T11:35:19.846Z,0.89
2023-05-22T11:36:19.842Z,0.87
2023-05-22T11:37:19.959Z,0.88
2023-05-22T11:38:19.852Z,0.87
2023-05-22T11:39:19.844Z,0.86
2023-05-22T11:40:19.832Z,0.85
2023-05-22T11:41:19.858Z,0.84
2023-05-22T11:42:19.944Z,0.84
2023-05-22T11:43:20.095Z,0.84
2023-05-22T11:44:20.075Z,0.83
2023-05-22T11:45:20.124Z,0.82
2023-05-22T11:46:20.211Z,0.82
2023-05-22T11:47:20.224Z,0.81
2023-05-22T11:48:20.292Z,0.81
2023-05-22T11:49:20.392Z,0.80
2023-05-22T11:50:33.490Z,0.81
2023-05-22T11:51:21.376Z,0.81
2023-05-22T11:52:20.430Z,0.80
2023-05-22T11:53:20.697Z,0.80
2023-05-22T11:54:20.374Z,0.77
2023-05-22T11:55:20.391Z,0.76
2023-05-22T11:56:20.360Z,0.77
2023-05-22T11:57:20.366Z,0.76
2023-05-22T11:58:20.363Z,0.76
2023-05-22T11:59:20.328Z,0.76
2023-05-22T12:00:20.347Z,0.74
2023-05-22T12:01:20.304Z,0.75
2023-05-22T12:02:20.325Z,0.74
2023-05-22T12:03:20.417Z,0.73
2023-05-22T12:04:20.361Z,0.73
2023-05-22T12:05:20.259Z,0.73
2023-05-22T12:06:20.349Z,0.72
2023-05-22T12:07:20.256Z,0.70
2023-05-22T12:08:20.309Z,0.71
2023-05-22T12:09:20.348Z,0.70
2023-05-22T12:10:20.302Z,0.70
2023-05-22T12:11:20.246Z,0.70
2023-05-22T12:12:22.335Z,0.69
2023-05-22T12:13:20.203Z,0.69
2023-05-22T12:14:20.234Z,0.68
2023-05-22T12:15:20.245Z,0.68
2023-05-22T12:16:20.262Z,0.68
2023-05-22T12:17:20.223Z,0.68
2023-05-22T12:18:20.231Z,0.68
2023-05-22T12:19:20.299Z,0.67
2023-05-22T12:20:20.241Z,0.66
2023-05-22T12:21:20.250Z,0.65
2023-05-22T12:22:22.590Z,0.65
2023-05-22T12:23:20.248Z,0.66
2023-05-22T12:24:20.270Z,0.66
2023-05-22T12:25:20.579Z,0.65
2023-05-22T12:26:20.243Z,0.64
2023-05-22T12:27:20.207Z,0.65
2023-05-22T12:28:20.228Z,0.66
2023-05-22T12:29:20.201Z,0.66
2023-05-22T12:30:20.212Z,0.66
2023-05-22T12:31:20.210Z,0.66
2023-05-22T12:32:20.275Z,0.66
2023-05-22T12:33:20.240Z,0.65
2023-05-22T12:34:20.198Z,0.65
2023-05-22T12:35:20.179Z,0.64
2023-05-22T12:36:20.168Z,0.64
2023-05-22T12:37:20.160Z,0.64
2023-05-22T12:38:20.166Z,0.63
2023-05-22T12:39:20.146Z,0.63
2023-05-22T12:40:20.180Z,0.63
2023-05-22T12:41:20.207Z,0.63
2023-05-22T12:42:20.114Z,0.63
2023-05-22T12:43:20.168Z,0.62
2023-05-22T12:44:20.104Z,0.61
2023-05-22T12:45:20.106Z,0.62
2023-05-22T12:46:20.141Z,0.61
2023-05-22T12:47:20.077Z,0.61
2023-05-22T12:48:20.054Z,0.62
2023-05-22T12:49:20.082Z,0.60
2023-05-22T12:50:20.043Z,0.60
2023-05-22T12:51:20.286Z,0.60
2023-05-22T12:52:20.056Z,0.60
2023-05-22T12:53:20.026Z,0.59
2023-05-22T12:54:20.022Z,0.59
2023-05-22T12:55:19.998Z,0.59
2023-05-22T12:56:20.009Z,0.60
2023-05-22T12:57:20.101Z,0.58
2023-05-22T12:58:19.994Z,0.57
2023-05-22T12:59:20.954Z,0.57
2023-05-22T13:00:20.012Z,0.58
2023-05-22T13:01:27.063Z,0.57
2023-05-22T13:02:19.979Z,0.57
2023-05-22T13:03:19.937Z,0.57
2023-05-22T13:04:19.958Z,0.57
2023-05-22T13:05:20.020Z,0.58
2023-05-22T13:06:19.956Z,0.58
2023-05-22T13:07:19.953Z,0.57
2023-05-22T13:08:19.916Z,0.57
2023-05-22T13:09:19.924Z,0.56
2023-05-22T13:10:19.908Z,0.56
2023-05-22T13:11:19.915Z,0.56
2023-05-22T13:12:19.949Z,0.57
2023-05-22T13:13:19.995Z,0.56
2023-05-22T13:14:19.902Z,0.55
2023-05-22T13:15:19.876Z,0.56
2023-05-22T13:16:19.908Z,0.54
2023-05-22T13:17:19.895Z,0.55
2023-05-22T13:18:19.835Z,0.55